ETHL

Laupheim Airport

Germany
METAR ETHL 151820Z 01003KT 9999 05/00 Q1031 BLU+
Observed Flight Rules
Feb-15 @ 18:20 UTC (an hour ago)
Wind Visibility
10° at 3 knots 10,000+ meters
Temperatures Readings
Current 5°C / 41°F
Dewpoint 0°C / 32°F
Humidity 70%
Altimeter 30.44" Hg
Pressure 1030.91 hPa
Elevation 549
METAR ETHL 151820Z 01003KT 9999 05/00 Q1031 BLU+
Observed Flight Rules
Feb-15 @ 18:20 UTC
(an hour ago)
Wind Visibility
10° at 3 knots 10,000+ meters
Temperature Dewpoint
5°C / 41°F 0°C / 32°F
Humidity Altimeter Pressure
70% 30.44" Hg 1030.91 hPa